• Join FlightAware (Why Join?)
  • Login
  • US Flag 
06:15AM EDT


 

Airport Tracker/Info


-or-


 

Live Flight TrackerFlight Track Log ✈ N935SS ✈ 10-Apr-2013 ✈ KYIP - KHPN

Flight Track Log - Related Links

Times and Time Zones

All times are in EDT time to prevent confusion due to time zone crossing. See the N935SS flight status page for this flight to view local times or setup timezone preferences in your user account.

Time Position Orientation Groundspeed Altitude Reporting Facility
EDT Latitude Longitude Course Direction KTS MPH feet Rate Location/Type
02:08PM 42.2456 -83.5172 350° North 175 201 1,400  Level Cleveland Center
02:08PM 42.2744 -83.5242 350° North 244 281 2,600 2,520 Climbing Cleveland Center
02:09PM 42.3042 -83.5900 301° West 238 274 5,000 3,000 Climbing Cleveland Center
02:10PM 42.3356 -83.6647 300° West 222 255 8,400 2,700 Climbing Cleveland Center
02:11PM 42.2936 -83.7439 234° Southwest 307 353 11,300 2,160 Climbing Cleveland Center
02:12PM 42.2417 -83.6628 131° Southeast 394 453 13,100 840 Climbing Cleveland Center
02:13PM 42.2375 -83.5056 92° East 425 489 13,000 900 Descending Cleveland Center
02:15PM 42.2333 -83.3336 90° East  Level FlightAware Approximate
02:15PM 42.2681 -83.1842 90° East 408 470 16,000  Level Cleveland Center
02:16PM 42.2675 -83.0300 90° East 408 470 16,000 600 Level Cleveland Center
02:17PM 42.2644 -82.8728 91° East 403 464 17,200 1,860 Climbing Cleveland Center
02:18PM 42.2633 -82.7100 90° East 416 479 19,800 2,460 Climbing Cleveland Center
02:19PM 42.2661 -82.5500 89° East 422 486 22,200 2,220 Climbing Cleveland Center
02:20PM 42.2772 -82.3903 85° East 422 486 24,300 1,860 Climbing Cleveland Center
02:21PM 42.2878 -82.2308 85° East 422 486 26,000 1,620 Climbing Cleveland Center
02:22PM 42.2922 -82.0681 88° East 427 491 27,600 1,500 Climbing Cleveland Center
02:23PM 42.2858 -81.8939 93° East 446 513 29,100 1,320 Climbing Cleveland Center
02:24PM 42.2833 -81.7394 91° East 456 525 30,300 1,380 Climbing Cleveland Center
02:25PM 42.2789 -81.5711 92° East 456 525 31,900 1,500 Climbing Cleveland Center
02:26PM 42.2739 -81.3997 92° East 456 525 33,400 1,500 Climbing Cleveland Center
02:27PM 42.2708 -81.2314 90° East 456 525 34,900 780 Climbing Cleveland Center
02:28PM 42.2668 -81.2273 90° East  Level FlightAware Approximate
02:28PM 42.2653 -81.0544 92° East 461 531 35,000  Level Cleveland Center
02:29PM 42.2578 -80.8553 93° East 480 552 35,900 1,200 Climbing Cleveland Center
02:30PM 42.2517 -80.6700 92° East 480 552 37,500 1,500 Climbing Cleveland Center
02:31PM 42.2581 -80.4961 87° East 475 547 38,900 720 Climbing Cleveland Center
02:32PM 42.2722 -80.3139 84° East 481 554 39,000  Climbing Cleveland Center
02:33PM 42.2842 -80.1258 85° East 492 566 39,000  Level Cleveland Center
02:34PM 42.3000 -79.9292 84° East 509 586 39,000  Level Cleveland Center
02:35PM 42.3133 -79.7381 85° East 515 593 39,000 480 Level Cleveland Center
02:36PM 42.3283 -79.5442 84° East 515 593 40,000 960 Climbing Cleveland Center
02:37PM 42.3411 -79.3583 85° East 515 593 41,000 480 Climbing Cleveland Center
02:38PM 42.3536 -79.1700 85° East 508 585 41,000  Level Cleveland Center
02:39PM 42.3636 -78.9786 86° East 508 585 41,000  Level Cleveland Center
02:40PM 42.3756 -78.8069 85° East 508 585 41,000  Level Cleveland Center
02:41PM 42.3892 -78.6125 85° East 508 585 41,000  Level Cleveland Center
02:42PM 42.3981 -78.4153 86° East 519 597 41,000  Level Cleveland Center
02:43PM 42.4089 -78.2181 86° East 519 597 41,000  Level Cleveland Center
02:44PM 42.4194 -78.0236 86° East 519 597 41,000 -600 Level Cleveland Center
02:45PM 42.4289 -77.8067 87° East 524 603 39,900 -1,320 Descending Cleveland Center
02:46PM 42.4428 -77.6092 84° East 524 603 38,400 -1,500 Descending Cleveland Center
02:49PM 42.4658 -77.1356 86° East 523 602 34,800 -1,500 Descending Boston Center
02:50PM 42.4739 -76.9389 87° East 523 602 33,300 -960 Descending Boston Center
02:51PM 42.4839 -76.7342 86° East 523 602 33,000 -180 Descending Boston Center
02:52PM 42.4914 -76.5319 87° East 534 615 33,000 -120 Level Boston Center
02:53PM 42.4711 -76.3333 98° East 534 615 32,800 -1,140 Descending Boston Center
02:54PM 42.4317 -76.1422 106° East 529 609 30,800 -2,100 Descending Boston Center
02:55PM 42.3919 -75.9544 106° East 521 600 28,700 -2,040 Descending Boston Center
02:56PM 42.3611 -75.8036 105° East 521 600 26,900 -2,220 Descending Boston Center
02:57PM 42.3147 -75.5989 107° East 521 600 24,300 -4,380 Descending Boston Center
02:58PM 42.2758 -75.4144 106° East 516 594 18,000 -2,160 Descending Boston Center
02:59PM 42.2389 -75.2333 105° East 516 594 20,000  Climbing Boston Center
03:00PM 42.1992 -75.0661 108° East 489 563 18,000 -1,020 Descending Boston Center
03:01PM 42.1528 -74.8989 110° East 478 550 18,000  Level Boston Center
03:02PM 42.0872 -74.7481 120° Southeast 468 539 18,000 -660 Level Boston Center
03:03PM 42.0036 -74.5439 119° Southeast 478 550 16,600 -1,320 Descending Boston Center
03:04PM 41.9375 -74.3964 121° Southeast 468 539 15,100 -840 Descending Boston Center
03:05PM 41.8347 -74.3125 149° Southeast 435 501 15,000 -360 Descending Boston Center
03:06PM 41.7297 -74.2258 148° Southeast 440 506 14,500 -1,800 Descending Boston Center
03:07PM 41.6103 -74.1339 150° Southeast 430 495 11,100 -2,520 Descending Boston Center
03:08PM 41.5667 -74.1000 150° Southeast 382 440 10,600 -1,500 Descending New York TRACON
03:09PM 41.5000 -74.0333 143° Southeast 319 367 9,100 -2,040 Descending New York TRACON
03:10PM 41.4167 -73.9833 156° South 316 364 6,600 -2,040 Descending New York TRACON
03:11PM 41.3500 -73.9167 143° Southeast 295 339 5,100 -1,680 Descending New York TRACON
03:12PM 41.2667 -73.8667 156° South 283 326 3,100 -1,020 Descending New York TRACON
03:13PM 41.2167 -73.8167 143° Southeast 264 304 3,000 -420 Descending New York TRACON
03:14PM 41.1500 -73.7833 159° South 204 235 2,300 -840 Descending New York TRACON
03:15PM 41.1167 -73.7500 143° Southeast 147 169 1,400 -840 Descending New York TRACON
03:16PM 41.0833 -73.7167 143° Southeast 140 161 700 -720 Descending New York TRACON
03:18PM 41.0667 -73.7000 246° West  Level FlightAware Approximate
03:25PM 41.0669 -73.7076 246° West  Level Estimated